Time;durP1;ratioP1;P1;durP2;ratioP2;P2;SDS_P1;SDS_P2;PMS_P1;PMS_P2;Temp;Humidity;BMP_temperature;BMP_pressure;BME280_temperature;BME280_humidity;BME280_pressure;Samples;Min_cycle;Max_cycle;Signal;HPM_P1;HPM_P2
2021/05/17 00:31:06;;;;;;;2.10;1.60;;;13.70;99.90;;;;;;4760714;29;20879;-47
2021/05/17 00:33:36;;;;;;;2.27;1.60;;;13.70;99.90;;;;;;4924283;28;20493;-47
2021/05/17 00:36:03;;;;;;;2.03;1.60;;;14.00;99.90;;;;;;4966834;28;20457;-47
2021/05/17 00:38:29;;;;;;;1.73;1.53;;;13.90;99.90;;;;;;5051622;28;20429;-46
2021/05/17 00:48:48;;;;;;;2.53;1.60;;;13.60;99.90;;;;;;4850311;29;20987;-46
2021/05/17 00:51:16;;;;;;;3.43;1.70;;;13.60;99.90;;;;;;4924904;28;20930;-46
2021/05/17 01:00:27;;;;;;;2.90;1.60;;;13.50;99.90;;;;;;4926662;28;20535;-46
2021/05/17 01:03:01;;;;;;;2.13;1.93;;;13.50;99.90;;;;;;4976274;28;20497;-47
2021/05/17 01:05:43;;;;;;;2.27;1.60;;;13.70;99.90;;;;;;5034002;28;20484;-46
2021/05/17 01:08:14;;;;;;;3.30;2.10;;;13.50;99.90;;;;;;5033510;28;20443;-46
2021/05/17 01:10:43;;;;;;;3.77;2.20;;;13.50;99.90;;;;;;5051387;28;20495;-45
2021/05/17 01:17:07;;;;;;;2.50;2.00;;;13.60;99.90;;;;;;5055817;28;20511;-45
2021/05/17 01:34:10;;;;;;;3.23;2.10;;;13.50;99.90;;;;;;4711708;30;20896;-46
2021/05/17 01:36:40;;;;;;;2.73;2.10;;;13.60;99.90;;;;;;4785280;29;20506;-46
2021/05/17 01:47:09;;;;;;;3.17;1.97;;;13.70;99.90;;;;;;4768561;30;20445;-47
2021/05/17 01:49:43;;;;;;;2.23;2.03;;;13.30;99.90;;;;;;4790027;29;20571;-46
2021/05/17 01:59:30;;;;;;;3.63;2.10;;;13.20;99.90;;;;;;4818749;28;20514;-46
2021/05/17 02:01:58;;;;;;;6.77;2.70;;;12.90;99.90;;;;;;5054629;28;20436;-46
2021/05/17 02:08:32;;;;;;;3.77;2.90;;;13.30;99.90;;;;;;4900694;29;20458;-45
2021/05/17 02:11:01;;;;;;;3.23;2.60;;;13.10;99.90;;;;;;5018433;28;20445;-46
2021/05/17 02:21:08;;;;;;;5.47;3.07;;;13.20;99.90;;;;;;4994892;28;20941;-46
2021/05/17 02:23:35;;;;;;;2.47;2.10;;;13.10;99.90;;;;;;5054013;28;20533;-46
2021/05/17 02:29:38;;;;;;;2.97;2.30;;;13.00;99.90;;;;;;4888016;28;20443;-45
2021/05/17 02:32:05;;;;;;;3.67;2.33;;;13.00;99.90;;;;;;5048949;28;20454;-47
2021/05/17 02:41:40;;;;;;;2.40;2.10;;;13.40;99.90;;;;;;5008902;28;20789;-47
2021/05/17 02:44:08;;;;;;;3.73;2.40;;;13.20;99.90;;;;;;5053210;28;20997;-47
2021/05/17 02:46:35;;;;;;;2.60;2.40;;;13.30;99.90;;;;;;5035681;28;20446;-48
2021/05/17 02:49:02;;;;;;;3.50;2.30;;;13.50;99.90;;;;;;5053625;28;20801;-47
2021/05/17 02:55:30;;;;;;;4.10;2.27;;;13.30;99.90;;;;;;5053756;28;20420;-47
2021/05/17 02:58:06;;;;;;;3.37;2.40;;;13.30;99.90;;;;;;5035356;28;20984;-47
2021/05/17 03:04:56;;;;;;;5.80;2.40;;;13.30;99.90;;;;;;5053001;28;20473;-47
2021/05/17 03:07:25;;;;;;;4.00;3.23;;;13.20;99.90;;;;;;5035244;28;20777;-47
2021/05/17 03:17:03;;;;;;;4.13;2.53;;;13.40;99.90;;;;;;4838744;29;20491;-47
2021/05/17 03:19:32;;;;;;;3.43;2.80;;;13.40;99.90;;;;;;4985058;28;20445;-47
2021/05/17 03:25:50;;;;;;;4.13;2.77;;;13.40;99.90;;;;;;4946209;29;20904;-47
2021/05/17 03:28:16;;;;;;;6.67;3.07;;;13.80;99.90;;;;;;4952277;29;20433;-46
2021/05/17 03:30:42;;;;;;;4.50;3.20;;;13.40;99.90;;;;;;5026758;28;20523;-47
2021/05/17 03:40:39;;;;;;;3.97;3.20;;;13.40;99.90;;;;;;4920856;28;20450;-48
2021/05/17 03:43:05;;;;;;;4.43;3.40;;;13.40;99.90;;;;;;5041688;28;20528;-47
2021/05/17 03:52:41;;;;;;;5.00;3.20;;;13.40;99.90;;;;;;4876164;28;20444;-47
2021/05/17 03:55:09;;;;;;;7.80;3.93;;;13.30;99.90;;;;;;5052352;28;20768;-48
2021/05/17 04:23:46;;;;;;;6.87;4.40;;;13.40;99.90;;;;;;4748031;30;20841;-48
2021/05/17 04:30:01;;;;;;;5.60;4.50;;;13.50;99.90;;;;;;4720596;30;20540;-48
2021/05/17 04:32:27;;;;;;;6.10;4.47;;;13.20;99.90;;;;;;4839155;29;20455;-47
2021/05/17 04:34:53;;;;;;;5.70;4.20;;;13.50;99.90;;;;;;4920138;28;20476;-47
2021/05/17 05:10:58;;;;;;;5.77;5.00;;;14.40;99.90;;;;;;4673675;30;20488;-48
2021/05/17 05:13:25;;;;;;;6.10;5.50;;;14.50;99.90;;;;;;4776589;29;20498;-47
2021/05/17 05:30:15;;;;;;;4.93;3.77;;;14.80;99.90;;;;;;4704370;29;20469;-48
2021/05/17 05:32:53;;;;;;;6.50;3.53;;;14.50;99.90;;;;;;4852332;29;20459;-48
2021/05/17 05:42:52;;;;;;;7.00;4.23;;;14.70;99.90;;;;;;4716573;29;20440;-49
2021/05/17 05:45:24;;;;;;;8.00;2.83;;;14.50;99.90;;;;;;4838629;29;20497;-48
2021/05/17 05:55:07;;;;;;;4.23;2.80;;;15.30;99.90;;;;;;4827392;28;20489;-49
2021/05/17 05:57:40;;;;;;;2.70;2.50;;;15.20;99.90;;;;;;5051653;28;20568;-48
2021/05/17 06:08:02;;;;;;;3.03;2.20;;;15.60;99.90;;;;;;5055223;28;20806;-50
2021/05/17 06:10:29;;;;;;;4.50;1.90;;;15.20;99.90;;;;;;5037879;28;20954;-50
2021/05/17 06:12:57;;;;;;;5.20;2.07;;;15.80;99.90;;;;;;5055285;28;20436;-49
2021/05/17 06:15:24;;;;;;;2.30;1.73;;;15.60;99.90;;;;;;5055804;28;20532;-49
2021/05/17 06:17:51;;;;;;;3.30;1.80;;;15.90;99.90;;;;;;5055307;28;20647;-50
2021/05/17 06:34:08;;;;;;;5.83;2.60;;;16.30;99.90;;;;;;4770903;29;20593;-50
2021/05/17 06:36:34;;;;;;;3.77;2.80;;;16.60;99.90;;;;;;4843377;29;20285;-51
2021/05/17 06:39:00;;;;;;;3.90;2.30;;;16.30;99.90;;;;;;5018884;28;20536;-49
2021/05/17 06:41:26;;;;;;;2.57;1.80;;;16.60;99.90;;;;;;5054459;28;20445;-49
2021/05/17 06:43:53;;;;;;;7.43;2.47;;;16.60;99.90;;;;;;5054230;28;20573;-50
2021/05/17 06:46:19;;;;;;;4.50;3.10;;;16.70;99.90;;;;;;5056801;28;20531;-49
2021/05/17 06:48:46;;;;;;;2.83;1.73;;;16.90;99.90;;;;;;5036810;28;20447;-49
2021/05/17 06:51:16;;;;;;;3.40;2.17;;;17.00;99.90;;;;;;5054340;28;20526;-50
2021/05/17 06:53:42;;;;;;;3.77;2.43;;;16.80;99.90;;;;;;5054265;28;20455;-49
2021/05/17 06:56:14;;;;;;;3.00;1.67;;;17.00;99.90;;;;;;5036373;28;20452;-49
2021/05/17 06:58:52;;;;;;;4.30;1.87;;;17.30;99.90;;;;;;5054292;28;20555;-50
2021/05/17 07:01:19;;;;;;;3.07;1.53;;;17.30;99.90;;;;;;5054134;28;20579;-49
2021/05/17 07:03:46;;;;;;;4.10;1.83;;;17.20;99.90;;;;;;5053976;28;20552;-49
2021/05/17 07:06:18;;;;;;;5.20;2.20;;;17.10;99.90;;;;;;5054144;28;20429;-50
2021/05/17 07:31:38;;;;;;;1.90;1.20;;;17.20;99.50;;;;;;4859093;29;20775;-50
2021/05/17 07:34:05;;;;;;;9.80;4.60;;;17.30;99.60;;;;;;4936601;28;20841;-50
2021/05/17 07:47:52;;;;;;;4.23;1.33;;;17.00;98.50;;;;;;4977434;28;20412;-50
2021/05/17 07:50:18;;;;;;;5.60;1.50;;;16.80;98.10;;;;;;5053424;28;20937;-49
2021/05/17 07:52:47;;;;;;;2.90;1.43;;;16.90;98.00;;;;;;5035408;28;20458;-49
2021/05/17 09:07:33;;;;;;;2.47;1.23;;;18.90;93.20;;;;;;5051531;28;20440;-52
2021/05/17 09:10:13;;;;;;;4.73;1.10;;;18.80;92.60;;;;;;5051326;28;20445;-50
2021/05/17 09:12:54;;;;;;;3.80;1.20;;;19.10;91.80;;;;;;5051313;28;20500;-50
2021/05/17 09:15:27;;;;;;;3.90;2.13;;;19.10;91.20;;;;;;5050964;28;20817;-49
2021/05/17 09:17:58;;;;;;;2.10;1.23;;;19.40;91.20;;;;;;5051210;28;20573;-50
2021/05/17 09:20:25;;;;;;;3.00;1.30;;;19.40;90.70;;;;;;5052189;28;20530;-49
2021/05/17 09:23:20;;;;;;;1.67;1.10;;;19.80;90.50;;;;;;5051599;28;20483;-48
2021/05/17 09:26:01;;;;;;;1.70;0.80;;;19.40;89.80;;;;;;5047952;28;20967;-50
2021/05/17 09:28:29;;;;;;;2.30;0.93;;;19.50;90.00;;;;;;5051503;28;20811;-50
2021/05/17 09:31:03;;;;;;;3.60;1.43;;;19.40;89.10;;;;;;5051770;28;20440;-49
2021/05/17 09:33:30;;;;;;;1.33;0.80;;;19.10;89.00;;;;;;5050819;28;21067;-49
2021/05/17 09:35:58;;;;;;;2.20;1.00;;;19.50;89.50;;;;;;5053788;28;20472;-50
2021/05/17 09:38:25;;;;;;;2.03;1.00;;;18.90;88.40;;;;;;5055099;28;20482;-49
2021/05/17 09:41:04;;;;;;;1.80;1.07;;;19.30;88.50;;;;;;5055092;28;20524;-51
2021/05/17 09:43:30;;;;;;;2.47;1.03;;;19.10;87.60;;;;;;5054460;28;20560;-50
2021/05/17 09:45:57;;;;;;;1.90;1.00;;;19.20;87.20;;;;;;5055100;28;20438;-51
2021/05/17 09:48:24;;;;;;;3.20;1.10;;;19.10;87.70;;;;;;5055224;28;20434;-50
2021/05/17 09:50:55;;;;;;;1.27;0.80;;;19.40;88.30;;;;;;5055054;28;20438;-48
2021/05/17 09:53:23;;;;;;;5.00;0.90;;;19.50;86.90;;;;;;5054560;28;20449;-49
2021/05/17 09:55:50;;;;;;;2.20;1.23;;;19.30;86.20;;;;;;5037260;28;20453;-49
2021/05/17 09:58:27;;;;;;;4.80;1.20;;;19.30;85.80;;;;;;5055367;28;20567;-49
2021/05/17 10:01:08;;;;;;;7.00;1.70;;;19.30;84.20;;;;;;5055012;28;20465;-52
2021/05/17 10:03:36;;;;;;;2.03;1.40;;;19.30;84.90;;;;;;5036134;28;20559;-50
2021/05/17 10:06:02;;;;;;;3.07;1.63;;;19.30;85.70;;;;;;5054575;28;20449;-49
2021/05/17 10:08:29;;;;;;;2.37;1.13;;;19.40;86.30;;;;;;5054774;28;20438;-50
2021/05/17 10:10:56;;;;;;;15.43;1.87;;;19.30;86.00;;;;;;5054739;28;20433;-51
2021/05/17 10:13:22;;;;;;;4.50;1.67;;;19.10;85.20;;;;;;5054504;28;20459;-51
2021/05/17 10:15:49;;;;;;;3.70;1.30;;;19.30;84.60;;;;;;5054769;28;20430;-49
2021/05/17 10:18:16;;;;;;;2.43;1.30;;;19.20;84.00;;;;;;5055194;28;20525;-50
2021/05/17 10:20:44;;;;;;;2.60;1.00;;;19.60;84.60;;;;;;5054855;28;20441;-49
2021/05/17 10:23:13;;;;;;;1.73;0.80;;;19.70;83.90;;;;;;5054327;28;20464;-51
2021/05/17 10:25:40;;;;;;;4.70;1.10;;;19.90;82.90;;;;;;5054155;28;20469;-50
2021/05/17 10:28:10;;;;;;;4.00;2.10;;;19.50;82.60;;;;;;5054887;28;20462;-50
2021/05/17 10:30:37;;;;;;;5.10;1.77;;;19.80;81.60;;;;;;5055177;28;20445;-50
2021/05/17 10:33:05;;;;;;;1.50;1.10;;;19.90;81.10;;;;;;5053992;28;20444;-49
2021/05/17 10:35:33;;;;;;;2.97;1.00;;;19.80;81.70;;;;;;5036761;28;20484;-49
2021/05/17 10:38:16;;;;;;;2.80;1.53;;;20.00;80.80;;;;;;5038158;28;20467;-49
2021/05/17 10:40:45;;;;;;;3.00;1.37;;;20.30;78.60;;;;;;5055571;28;20423;-47
2021/05/17 10:43:19;;;;;;;3.47;1.60;;;20.30;77.80;;;;;;5053935;28;20550;-49
2021/05/17 10:48:47;;;;;;;1.47;0.80;;;20.50;74.60;;;;;;4992562;28;20443;-49
2021/05/17 10:51:23;;;;;;;1.87;0.80;;;20.40;74.30;;;;;;4992262;28;20509;-49
2021/05/17 10:53:53;;;;;;;1.93;1.00;;;20.40;74.20;;;;;;5023950;28;20478;-50
2021/05/17 10:56:43;;;;;;;4.00;1.37;;;20.10;73.80;;;;;;5054551;28;20812;-50
2021/05/17 11:01:57;;;;;;;2.10;1.13;;;20.30;75.40;;;;;;5054218;28;20717;-48
2021/05/17 11:04:30;;;;;;;2.83;1.40;;;20.30;75.90;;;;;;5053715;28;20491;-49
2021/05/17 11:07:17;;;;;;;2.50;1.20;;;20.30;75.40;;;;;;5054291;28;20451;-49
2021/05/17 11:09:49;;;;;;;2.57;0.80;;;20.60;76.00;;;;;;5054132;28;20839;-47
2021/05/17 11:12:38;;;;;;;2.07;1.03;;;20.30;75.80;;;;;;5053142;28;20578;-50
2021/05/17 11:15:07;;;;;;;1.50;1.10;;;20.50;75.20;;;;;;5036568;28;20571;-45
2021/05/17 11:17:55;;;;;;;1.60;0.83;;;20.40;75.50;;;;;;5054525;28;20472;-46
2021/05/17 11:20:45;;;;;;;1.77;1.03;;;20.50;76.40;;;;;;5054418;28;20501;-47
2021/05/17 11:23:13;;;;;;;2.30;0.90;;;20.30;74.40;;;;;;5055053;28;20533;-47
2021/05/17 11:25:48;;;;;;;2.67;1.50;;;20.30;73.60;;;;;;5055486;28;20534;-47
2021/05/17 11:28:15;;;;;;;2.23;1.40;;;20.40;74.00;;;;;;5053707;28;20456;-47
2021/05/17 11:30:44;;;;;;;4.10;1.80;;;20.50;74.00;;;;;;5053443;28;20474;-49
2021/05/17 11:33:15;;;;;;;3.00;1.73;;;20.10;71.30;;;;;;5052669;28;20882;-46
2021/05/17 11:36:01;;;;;;;3.00;0.80;;;20.20;70.20;;;;;;5064432;23;20648;-49
2021/05/17 11:38:27;;;;;;;2.50;1.10;;;20.00;70.20;;;;;;5050389;28;20855;-50
2021/05/17 11:40:54;;;;;;;2.33;0.93;;;20.10;70.80;;;;;;5050697;28;20441;-52
2021/05/17 11:43:21;;;;;;;2.00;1.00;;;20.40;71.60;;;;;;5050543;28;20449;-51
2021/05/17 11:45:48;;;;;;;2.33;1.57;;;20.10;72.20;;;;;;5050620;28;20473;-51
2021/05/17 11:48:14;;;;;;;1.43;0.90;;;20.20;72.40;;;;;;5051063;28;20511;-51
2021/05/17 11:50:41;;;;;;;3.10;1.23;;;20.40;72.90;;;;;;5050897;28;20471;-51
2021/05/17 11:53:13;;;;;;;3.20;1.20;;;20.00;72.60;;;;;;5050203;28;20856;-51
2021/05/17 11:55:47;;;;;;;2.03;0.83;;;19.80;72.40;;;;;;5050814;28;20813;-50
2021/05/17 11:58:13;;;;;;;2.40;1.20;;;19.90;72.60;;;;;;5049332;28;20943;-50
2021/05/17 12:00:40;;;;;;;1.17;0.90;;;19.70;72.50;;;;;;5049705;28;20427;-51
2021/05/17 12:03:10;;;;;;;2.30;0.87;;;19.70;72.40;;;;;;5031631;28;20450;-50
2021/05/17 12:05:37;;;;;;;1.93;0.93;;;19.80;71.40;;;;;;5031868;28;20496;-50
2021/05/17 12:08:03;;;;;;;2.63;0.97;;;19.50;71.00;;;;;;5050267;28;20437;-50
2021/05/17 12:10:34;;;;;;;3.13;1.10;;;19.60;71.50;;;;;;5032213;28;20446;-50
2021/05/17 12:13:07;;;;;;;3.33;1.90;;;19.60;71.60;;;;;;5049637;28;20434;-51
2021/05/17 12:15:34;;;;;;;2.00;0.93;;;19.50;71.20;;;;;;5049640;28;20457;-50
2021/05/17 12:18:07;;;;;;;5.17;1.10;;;19.80;71.50;;;;;;5049669;28;20875;-51
2021/05/17 12:20:35;;;;;;;2.17;1.30;;;19.10;70.90;;;;;;5049579;28;20442;-51
2021/05/17 12:23:01;;;;;;;2.60;1.10;;;19.70;71.90;;;;;;5049810;28;20435;-51
2021/05/17 12:25:27;;;;;;;2.03;0.93;;;19.60;71.60;;;;;;5049991;28;20457;-51
2021/05/17 12:27:54;;;;;;;3.07;1.07;;;19.90;72.10;;;;;;5049860;28;20929;-50
2021/05/17 12:30:22;;;;;;;5.70;1.73;;;19.70;70.70;;;;;;5049990;28;20568;-51
2021/05/17 12:32:50;;;;;;;1.97;1.00;;;19.80;70.20;;;;;;5049241;28;20484;-50
2021/05/17 12:35:25;;;;;;;1.87;0.80;;;20.00;66.90;;;;;;5049448;28;20478;-51
2021/05/17 12:37:55;;;;;;;2.83;1.10;;;19.60;63.50;;;;;;5049638;28;20569;-50
2021/05/17 12:40:25;;;;;;;1.90;1.20;;;19.90;64.90;;;;;;5049710;28;20438;-50
2021/05/17 12:43:04;;;;;;;2.50;1.10;;;20.10;65.00;;;;;;5049112;28;20783;-50
2021/05/17 12:45:31;;;;;;;2.40;0.97;;;19.70;64.50;;;;;;5049190;28;20457;-57
2021/05/17 12:47:57;;;;;;;1.93;0.97;;;19.90;64.90;;;;;;5048679;28;20485;-50
2021/05/17 12:50:25;;;;;;;5.97;1.40;;;20.60;64.80;;;;;;5049663;28;20427;-51
2021/05/17 12:53:04;;;;;;;2.60;1.10;;;20.20;63.80;;;;;;5048958;28;20439;-50
2021/05/17 12:55:38;;;;;;;1.40;1.03;;;20.50;63.40;;;;;;5049725;28;20545;-50
2021/05/17 12:58:04;;;;;;;2.70;1.57;;;20.40;62.50;;;;;;5048674;28;20534;-49
2021/05/17 13:00:40;;;;;;;4.07;0.83;;;20.70;62.20;;;;;;5049099;28;20444;-50
2021/05/17 13:03:10;;;;;;;4.60;1.30;;;20.80;61.30;;;;;;5048689;28;20905;-50
2021/05/17 13:05:53;;;;;;;1.67;1.00;;;20.80;61.30;;;;;;5049197;28;20562;-50
2021/05/17 13:08:21;;;;;;;1.63;0.83;;;21.00;61.90;;;;;;5031243;28;20456;-50
2021/05/17 13:10:56;;;;;;;2.57;0.87;;;20.80;62.10;;;;;;5048876;28;20777;-50
2021/05/17 13:13:47;;;;;;;3.43;2.00;;;21.00;62.80;;;;;;5048735;28;20450;-50
2021/05/17 13:16:18;;;;;;;2.57;1.70;;;21.00;63.00;;;;;;5048881;28;20469;-50
2021/05/17 13:19:11;;;;;;;2.43;0.80;;;21.10;63.00;;;;;;5030309;28;20507;-51
2021/05/17 13:21:47;;;;;;;3.40;1.50;;;21.40;62.40;;;;;;5049230;28;20499;-50
2021/05/17 13:24:46;;;;;;;2.33;1.40;;;21.10;61.90;;;;;;5048903;28;20480;-50
2021/05/17 13:30:04;;;;;;;4.50;1.20;;;21.50;61.20;;;;;;5049161;28;20434;-50
2021/05/17 13:32:32;;;;;;;3.07;1.10;;;21.50;60.40;;;;;;5049031;28;20449;-50
2021/05/17 13:34:58;;;;;;;2.30;1.47;;;21.50;59.50;;;;;;5057847;28;20495;-50
2021/05/17 13:37:25;;;;;;;3.03;2.00;;;21.50;59.80;;;;;;5049199;28;20896;-50
2021/05/17 13:39:52;;;;;;;4.23;1.90;;;21.30;59.90;;;;;;5049144;28;20696;-50
2021/05/17 13:42:18;;;;;;;3.07;1.60;;;21.40;60.00;;;;;;5048580;28;20437;-50
2021/05/17 13:44:45;;;;;;;4.37;1.30;;;21.30;59.90;;;;;;5048747;28;20886;-51
2021/05/17 13:47:11;;;;;;;2.17;0.90;;;21.10;59.50;;;;;;5049015;28;20796;-51
2021/05/17 13:49:38;;;;;;;3.97;2.27;;;21.50;59.70;;;;;;5048844;28;20519;-50
2021/05/17 13:52:05;;;;;;;2.73;2.20;;;21.20;59.40;;;;;;5048747;28;20516;-51
2021/05/17 13:54:31;;;;;;;2.63;1.77;;;21.10;58.80;;;;;;5047903;28;20496;-50
2021/05/17 13:56:59;;;;;;;4.23;1.30;;;21.10;58.90;;;;;;5048328;28;20968;-50
2021/05/17 13:59:25;;;;;;;6.20;1.40;;;21.10;58.60;;;;;;5047952;28;20493;-51
2021/05/17 14:01:52;;;;;;;2.30;1.10;;;21.20;58.80;;;;;;5030221;28;20495;-51
2021/05/17 14:04:18;;;;;;;2.43;1.53;;;21.30;59.30;;;;;;5048100;28;20973;-50
2021/05/17 14:06:44;;;;;;;2.10;1.30;;;21.30;58.60;;;;;;5048199;28;20471;-51
2021/05/17 14:09:13;;;;;;;3.53;1.77;;;21.60;58.50;;;;;;5048402;28;20440;-51
2021/05/17 14:11:40;;;;;;;2.60;1.30;;;21.60;58.10;;;;;;5048499;28;20434;-51
2021/05/17 14:14:07;;;;;;;3.70;1.70;;;21.50;57.70;;;;;;5048296;28;20451;-51
2021/05/17 14:16:33;;;;;;;2.30;1.63;;;21.20;56.10;;;;;;5048463;28;20927;-51
2021/05/17 14:18:59;;;;;;;4.00;2.07;;;21.60;56.80;;;;;;5047813;28;20823;-51
2021/05/17 14:21:25;;;;;;;2.63;1.10;;;21.70;56.60;;;;;;5049017;28;20544;-50
2021/05/17 14:23:52;;;;;;;5.23;1.37;;;21.70;57.00;;;;;;5052192;28;20463;-51
2021/05/17 14:26:18;;;;;;;2.87;1.43;;;21.60;56.50;;;;;;5051919;28;20507;-50
2021/05/17 14:28:46;;;;;;;2.00;1.03;;;21.50;56.50;;;;;;5033804;28;20455;-50
2021/05/17 14:31:15;;;;;;;4.50;1.30;;;21.50;56.60;;;;;;5051542;28;20433;-50
2021/05/17 14:33:41;;;;;;;2.80;1.30;;;21.30;56.30;;;;;;5051371;28;20437;-50
2021/05/17 14:36:08;;;;;;;2.40;1.60;;;21.60;56.80;;;;;;5051662;28;20446;-50
2021/05/17 14:38:34;;;;;;;2.50;0.90;;;21.50;56.80;;;;;;5033687;28;20477;-51
2021/05/17 14:41:02;;;;;;;4.27;2.27;;;21.10;56.40;;;;;;5051876;28;20433;-50
2021/05/17 14:43:29;;;;;;;4.40;1.60;;;21.20;56.60;;;;;;5051340;28;20445;-50
2021/05/17 14:45:56;;;;;;;3.47;1.77;;;21.00;56.30;;;;;;5051821;28;20515;-51
2021/05/17 14:48:23;;;;;;;5.80;1.70;;;20.90;56.50;;;;;;5052180;28;20460;-50
2021/05/17 14:50:50;;;;;;;3.10;1.40;;;21.30;57.00;;;;;;5051300;28;20490;-51
2021/05/17 14:53:16;;;;;;;6.80;1.53;;;21.40;57.60;;;;;;5033025;28;20444;-51
2021/05/17 14:55:42;;;;;;;2.80;1.47;;;21.00;57.20;;;;;;5051541;28;20499;-50
2021/05/17 14:58:09;;;;;;;3.33;1.20;;;21.40;57.40;;;;;;5050917;28;20567;-50
2021/05/17 15:00:35;;;;;;;3.07;1.30;;;21.40;57.30;;;;;;5051537;28;20434;-50
2021/05/17 15:03:02;;;;;;;6.70;2.50;;;21.60;57.70;;;;;;5051299;28;20470;-50
2021/05/17 15:05:29;;;;;;;4.80;1.50;;;21.20;57.00;;;;;;5051531;28;20899;-50
2021/05/17 15:07:56;;;;;;;3.43;1.63;;;21.40;56.40;;;;;;5051265;28;20530;-50
2021/05/17 15:10:23;;;;;;;5.10;2.03;;;21.40;56.90;;;;;;5050948;28;20487;-50
2021/05/17 15:12:49;;;;;;;2.97;1.60;;;21.50;56.40;;;;;;5050771;28;20438;-50
2021/05/17 15:15:20;;;;;;;2.67;1.73;;;21.30;56.50;;;;;;5051218;28;20498;-50
2021/05/17 15:17:50;;;;;;;6.03;2.10;;;21.20;56.30;;;;;;5052905;28;20479;-51
2021/05/17 15:20:16;;;;;;;5.50;1.77;;;21.30;56.50;;;;;;5051219;28;20440;-51
2021/05/17 15:22:44;;;;;;;3.23;1.07;;;21.20;56.40;;;;;;5032710;28;20473;-51
2021/05/17 15:25:13;;;;;;;2.53;1.20;;;21.30;56.20;;;;;;5051294;28;20540;-51
2021/05/17 15:27:40;;;;;;;2.47;1.47;;;21.20;56.20;;;;;;5050845;28;20950;-50
2021/05/17 15:30:08;;;;;;;3.60;1.50;;;21.00;56.00;;;;;;5050536;28;20887;-50
2021/05/17 15:32:35;;;;;;;3.40;2.03;;;20.90;56.00;;;;;;5050425;28;20434;-50
2021/05/17 15:35:04;;;;;;;6.63;1.40;;;21.00;56.40;;;;;;5032480;28;20536;-51
2021/05/17 15:37:30;;;;;;;2.77;1.20;;;21.10;56.60;;;;;;5050929;28;20437;-51
2021/05/17 15:39:57;;;;;;;3.90;1.80;;;20.90;56.70;;;;;;5050908;28;20476;-51
2021/05/17 15:42:24;;;;;;;5.97;2.50;;;21.20;57.10;;;;;;5050440;28;20531;-51
2021/05/17 15:44:50;;;;;;;2.50;1.60;;;20.80;57.30;;;;;;5050441;28;20561;-50
2021/05/17 15:47:17;;;;;;;6.60;5.10;;;20.20;57.10;;;;;;5050541;28;20438;-50
2021/05/17 15:49:43;;;;;;;3.60;2.10;;;20.70;57.10;;;;;;5050611;28;20973;-51
2021/05/17 15:52:09;;;;;;;5.67;1.70;;;20.80;57.30;;;;;;5050428;28;20439;-51
2021/05/17 15:54:35;;;;;;;2.93;1.30;;;20.70;57.20;;;;;;5050227;28;20463;-51
2021/05/17 15:57:03;;;;;;;3.47;1.77;;;20.50;57.10;;;;;;5050416;28;20432;-50
2021/05/17 15:59:29;;;;;;;4.50;1.87;;;20.30;56.90;;;;;;5050033;28;20480;-50
2021/05/17 16:01:55;;;;;;;3.43;1.17;;;20.20;56.90;;;;;;5050214;28;20440;-51
2021/05/17 16:04:22;;;;;;;5.90;1.70;;;20.20;56.90;;;;;;5049448;28;20522;-50
2021/05/17 16:06:48;;;;;;;2.30;1.20;;;20.30;57.10;;;;;;5049703;28;20506;-50
2021/05/17 16:09:15;;;;;;;3.00;1.60;;;20.20;57.30;;;;;;5050270;28;20534;-50
2021/05/17 16:11:46;;;;;;;4.03;1.90;;;20.60;57.80;;;;;;5049717;28;20453;-50
2021/05/17 16:14:18;;;;;;;3.13;1.50;;;20.80;57.90;;;;;;5049718;28;20558;-51
2021/05/17 16:16:53;;;;;;;4.27;1.60;;;20.50;57.60;;;;;;5050030;28;20425;-51
2021/05/17 16:22:04;;;;;;;4.70;1.60;;;20.50;57.50;;;;;;5049317;28;21029;-51
2021/05/17 16:24:30;;;;;;;3.27;1.60;;;20.80;57.70;;;;;;5031509;28;20500;-52
2021/05/17 16:26:56;;;;;;;5.70;1.77;;;20.80;57.30;;;;;;5050310;28;20914;-51
2021/05/17 16:29:23;;;;;;;3.43;1.57;;;20.50;57.00;;;;;;5050555;28;20939;-51
2021/05/17 16:31:50;;;;;;;3.30;1.40;;;20.70;57.40;;;;;;5050700;28;20929;-51
2021/05/17 16:34:17;;;;;;;3.60;1.33;;;21.00;57.80;;;;;;5050045;28;20555;-51
2021/05/17 16:36:43;;;;;;;3.00;1.60;;;20.80;57.80;;;;;;5031716;28;20491;-51
2021/05/17 16:39:10;;;;;;;2.40;1.67;;;20.70;57.80;;;;;;5031583;28;20487;-51
2021/05/17 16:41:37;;;;;;;3.37;1.70;;;20.80;58.30;;;;;;5049974;28;20440;-51
2021/05/17 16:44:04;;;;;;;3.90;1.67;;;20.90;58.40;;;;;;5049194;28;20465;-51
2021/05/17 16:46:31;;;;;;;4.70;2.43;;;20.90;58.60;;;;;;5049985;28;20467;-52
2021/05/17 16:49:01;;;;;;;4.80;1.83;;;21.00;59.20;;;;;;5049627;28;20855;-52
2021/05/17 16:51:28;;;;;;;3.40;1.50;;;21.00;59.90;;;;;;5049154;28;20506;-52
2021/05/17 16:53:54;;;;;;;3.40;2.20;;;20.60;60.60;;;;;;5049440;28;20813;-51
2021/05/17 16:56:20;;;;;;;5.93;2.00;;;20.70;61.60;;;;;;5031799;28;20983;-52
2021/05/17 16:58:47;;;;;;;4.67;2.63;;;20.50;62.40;;;;;;5049506;28;20481;-52
2021/05/17 17:01:13;;;;;;;7.13;2.10;;;20.80;63.80;;;;;;5049541;28;20690;-51
2021/05/17 17:03:40;;;;;;;3.47;1.83;;;20.90;64.70;;;;;;5049154;28;20463;-50
2021/05/17 17:06:06;;;;;;;6.57;2.13;;;20.60;64.80;;;;;;5049319;28;20498;-50
2021/05/17 17:08:34;;;;;;;3.77;2.53;;;20.50;65.20;;;;;;5049374;28;20945;-50
2021/05/17 17:11:00;;;;;;;5.90;1.77;;;20.10;65.60;;;;;;5049033;28;21008;-50
2021/05/17 17:13:29;;;;;;;5.80;2.00;;;20.50;66.90;;;;;;5048645;28;20486;-50
2021/05/17 17:15:56;;;;;;;3.23;1.50;;;20.40;67.20;;;;;;5030986;28;20440;-50
2021/05/17 17:18:22;;;;;;;4.60;2.10;;;20.10;67.20;;;;;;5049287;28;20579;-50
2021/05/17 17:20:49;;;;;;;2.67;1.70;;;20.10;66.50;;;;;;5049260;28;20545;-49
2021/05/17 17:23:15;;;;;;;3.30;1.30;;;20.20;66.20;;;;;;5049222;28;20432;-50
2021/05/17 17:25:41;;;;;;;5.40;2.00;;;20.00;65.60;;;;;;5049486;28;20447;-51
2021/05/17 17:28:07;;;;;;;3.87;1.97;;;19.70;65.50;;;;;;5049555;28;20526;-50
2021/05/17 17:30:33;;;;;;;2.27;1.03;;;19.80;67.80;;;;;;5049845;28;20603;-50
2021/05/17 17:33:00;;;;;;;2.43;1.00;;;20.10;68.80;;;;;;5049136;28;20824;-50
2021/05/17 17:35:26;;;;;;;4.70;1.03;;;19.50;68.50;;;;;;5063238;23;20502;-46
2021/05/17 17:37:53;;;;;;;2.97;1.30;;;19.10;66.00;;;;;;5050676;28;20928;-47
2021/05/17 17:40:20;;;;;;;4.00;1.23;;;19.50;66.70;;;;;;5050467;28;20434;-46
2021/05/17 17:42:47;;;;;;;2.40;1.17;;;19.80;70.00;;;;;;5050324;28;20437;-46
2021/05/17 17:45:14;;;;;;;3.07;1.40;;;19.40;73.50;;;;;;5050254;28;20446;-45
2021/05/17 17:47:40;;;;;;;3.33;1.50;;;19.40;76.80;;;;;;5050611;28;20536;-46
2021/05/17 17:50:08;;;;;;;3.90;1.90;;;19.20;78.70;;;;;;5050744;28;20525;-46
2021/05/17 17:52:34;;;;;;;4.50;1.70;;;19.30;81.10;;;;;;5050363;28;20449;-46
2021/05/17 17:55:01;;;;;;;6.23;2.53;;;19.10;83.30;;;;;;5050398;28;20458;-46
2021/05/17 17:57:27;;;;;;;2.83;1.80;;;19.20;85.30;;;;;;5053233;28;20881;-47
2021/05/17 17:59:53;;;;;;;4.53;2.93;;;19.10;87.00;;;;;;5054148;28;20425;-46
2021/05/17 18:02:19;;;;;;;3.50;1.80;;;19.00;87.20;;;;;;5054163;28;21016;-46
2021/05/17 18:04:46;;;;;;;5.07;1.63;;;19.20;88.00;;;;;;5054980;28;20457;-46
2021/05/17 18:07:12;;;;;;;2.17;1.63;;;19.10;85.80;;;;;;5054164;28;20823;-46
2021/05/17 18:09:38;;;;;;;2.47;1.47;;;18.60;83.50;;;;;;5054779;28;20434;-46
2021/05/17 18:12:09;;;;;;;4.30;2.03;;;18.50;82.40;;;;;;5055046;28;20470;-46
2021/05/17 18:14:35;;;;;;;2.50;2.13;;;18.60;83.10;;;;;;5053950;28;20813;-46
2021/05/17 18:17:03;;;;;;;2.60;1.50;;;18.60;83.40;;;;;;5054298;28;20951;-46
2021/05/17 18:19:30;;;;;;;3.60;2.23;;;18.20;84.20;;;;;;5053995;28;21043;-48
2021/05/17 18:21:56;;;;;;;4.60;2.70;;;18.30;85.10;;;;;;5054125;28;20462;-46
2021/05/17 18:24:22;;;;;;;3.10;2.27;;;18.30;85.70;;;;;;5053600;28;20460;-46
2021/05/17 18:26:54;;;;;;;3.00;2.00;;;18.50;86.50;;;;;;5054232;28;20437;-46
2021/05/17 18:29:25;;;;;;;2.40;1.77;;;18.40;86.70;;;;;;5054140;28;20455;-46
2021/05/17 18:31:54;;;;;;;6.40;1.87;;;18.30;86.70;;;;;;5054018;28;20433;-46
2021/05/17 18:34:30;;;;;;;5.10;2.10;;;18.30;86.60;;;;;;5053461;28;20477;-46
2021/05/17 18:36:56;;;;;;;3.03;1.80;;;18.10;86.10;;;;;;5036567;28;20457;-46
2021/05/17 18:39:22;;;;;;;3.70;2.57;;;18.30;86.10;;;;;;5054164;28;20545;-46
2021/05/17 18:41:48;;;;;;;8.70;1.77;;;18.20;85.70;;;;;;5054110;28;20499;-46
2021/05/17 18:46:56;;;;;;;2.63;1.50;;;18.10;85.90;;;;;;5031333;28;20444;-46
2021/05/17 18:49:22;;;;;;;3.00;1.70;;;18.00;86.20;;;;;;5053695;28;21013;-46
2021/05/17 18:51:48;;;;;;;2.60;1.50;;;18.30;87.00;;;;;;5053423;28;20511;-46
2021/05/17 18:54:15;;;;;;;4.97;3.40;;;17.80;86.50;;;;;;5053265;28;20815;-46
2021/05/17 18:56:43;;;;;;;2.43;1.70;;;18.30;87.30;;;;;;5053143;28;20434;-46
2021/05/17 18:59:11;;;;;;;2.20;1.50;;;18.10;87.50;;;;;;5053816;28;20485;-46
2021/05/17 19:01:38;;;;;;;2.40;1.63;;;17.60;86.80;;;;;;5053464;28;20430;-46
2021/05/17 19:04:05;;;;;;;2.03;1.60;;;17.80;87.20;;;;;;5052799;28;20537;-45
2021/05/17 19:06:32;;;;;;;4.97;2.13;;;17.80;86.70;;;;;;5053015;28;20514;-45